Time;durP1;ratioP1;P1;durP2;ratioP2;P2;SDS_P1;SDS_P2;PMS_P1;PMS_P2;Temp;Humidity;BMP_temperature;BMP_pressure;BME280_temperature;BME280_humidity;BME280_pressure;Samples;Min_cycle;Max_cycle;Signal;HPM_P1;HPM_P2
2022/01/13 00:01:30;;;;;;;14.87;6.20;;;;;;;-3.15;71.84;102021.02;1712883;84;21096;-59
2022/01/13 00:03:55;;;;;;;15.13;5.90;;;;;;;-3.19;71.82;102023.88;1740394;82;21057;-60
2022/01/13 00:06:24;;;;;;;15.28;5.50;;;;;;;-3.17;71.63;102020.05;1741236;82;21192;-59
2022/01/13 00:08:53;;;;;;;13.22;5.03;;;;;;;-3.20;71.59;102016.95;1754403;81;21144;-60
2022/01/13 00:11:22;;;;;;;11.22;5.53;;;;;;;-3.22;71.48;102022.47;1797965;79;21203;-60
2022/01/13 00:14:08;;;;;;;12.53;5.47;;;;;;;-3.32;71.72;102028.98;1797973;79;21116;-60
2022/01/13 00:16:38;;;;;;;12.18;6.22;;;;;;;-3.27;71.70;102029.14;1793540;79;21039;-60
2022/01/13 00:19:06;;;;;;;12.88;5.30;;;;;;;-3.28;71.34;102037.70;1766936;81;21034;-61
2022/01/13 00:21:40;;;;;;;10.13;4.67;;;;;;;-3.29;71.21;102041.08;1760519;81;21074;-61
2022/01/13 00:24:12;;;;;;;15.75;6.50;;;;;;;-3.28;71.14;102047.10;1760147;81;21635;-60
2022/01/13 00:26:37;;;;;;;12.93;6.08;;;;;;;-3.27;71.13;102051.03;1760096;81;21082;-60
2022/01/13 00:29:08;;;;;;;12.07;5.83;;;;;;;-3.26;71.18;102046.36;1760124;81;21188;-59
2022/01/13 00:31:40;;;;;;;11.75;6.17;;;;;;;-3.27;71.06;102056.19;1760139;81;21110;-61
2022/01/13 00:34:08;;;;;;;15.58;6.80;;;;;;;-3.28;70.75;102050.58;1760009;81;21162;-60
2022/01/13 00:36:39;;;;;;;14.25;6.12;;;;;;;-3.44;70.91;102043.94;1741270;82;21109;-61
2022/01/13 00:39:10;;;;;;;14.43;5.92;;;;;;;-3.44;70.91;102043.94;1741032;82;21147;-60
2022/01/13 00:41:40;;;;;;;15.85;7.03;;;;;;;-3.43;71.23;102053.44;1741112;82;21121;-60
2022/01/13 00:44:10;;;;;;;14.98;6.45;;;;;;;-3.40;71.06;102053.95;1740915;82;21519;-61
2022/01/13 00:46:46;;;;;;;12.68;5.75;;;;;;;-3.39;70.97;102050.58;1740960;82;21193;-60
2022/01/13 00:51:47;;;;;;;12.35;5.62;;;;;;;-3.38;70.63;102053.60;1829551;77;21170;-60
2022/01/13 00:54:16;;;;;;;13.93;5.87;;;;;;;-3.38;70.63;102053.60;1884124;75;21475;-60
2022/01/13 00:56:45;;;;;;;15.20;5.28;;;;;;;-3.42;70.76;102058.17;1884177;76;21004;-61
2022/01/13 00:59:15;;;;;;;13.65;5.80;;;;;;;-3.43;70.72;102058.97;1884349;76;21499;-62
2022/01/13 01:01:49;;;;;;;10.10;5.62;;;;;;;-3.43;70.72;102058.97;1884208;76;21040;-61
2022/01/13 01:04:19;;;;;;;13.25;5.90;;;;;;;-3.44;70.75;102058.52;1884147;76;21036;-61
2022/01/13 01:06:49;;;;;;;13.22;5.97;;;;;;;-3.45;70.66;102058.91;1884128;76;21532;-59
2022/01/13 01:09:29;;;;;;;10.70;5.33;;;;;;;-3.46;70.55;102057.59;1884055;76;21028;-61
2022/01/13 01:11:51;;;;;;;15.43;6.72;;;;;;;-3.50;70.61;102060.03;1883669;75;21045;-60
2022/01/13 01:14:19;;;;;;;11.10;5.75;;;;;;;-3.50;70.60;102057.45;1884186;76;21032;-59
2022/01/13 01:19:40;;;;;;;13.80;6.00;;;;;;;-3.47;70.54;102063.54;1784239;80;21107;-60
2022/01/13 01:22:38;;;;;;;10.88;5.47;;;;;;;-3.49;70.47;102059.61;1776598;81;21127;-59
2022/01/13 01:25:21;;;;;;;14.38;6.55;;;;;;;-3.49;70.47;102059.61;1783694;80;21190;-59
2022/01/13 01:27:39;;;;;;;12.88;5.65;;;;;;;-3.50;70.54;102064.31;1787970;80;21194;-62
2022/01/13 01:30:16;;;;;;;8.85;4.25;;;;;;;-3.55;70.37;102065.40;1787196;80;21690;-62
2022/01/13 01:32:40;;;;;;;9.38;5.72;;;;;;;-3.58;70.38;102073.41;1787345;80;21145;-61
2022/01/13 01:35:14;;;;;;;14.25;6.95;;;;;;;-3.68;70.83;102063.16;1787104;80;21062;-60
2022/01/13 01:37:45;;;;;;;12.93;6.08;;;;;;;-3.68;70.83;102063.16;1787319;80;21065;-60
2022/01/13 01:40:15;;;;;;;14.85;6.33;;;;;;;-3.60;70.61;102079.78;1787089;80;21132;-60
2022/01/13 01:42:46;;;;;;;9.78;5.47;;;;;;;-3.58;70.68;102079.46;1787119;80;21038;-61
2022/01/13 01:45:16;;;;;;;15.15;6.20;;;;;;;-3.53;70.62;102087.36;1787178;80;21053;-60
2022/01/13 01:47:45;;;;;;;16.65;6.92;;;;;;;-3.58;70.76;102078.56;1787223;80;21057;-60
2022/01/13 01:50:21;;;;;;;15.43;6.85;;;;;;;-3.51;70.66;102090.87;1787127;80;21534;-60
2022/01/13 01:52:52;;;;;;;13.20;7.10;;;;;;;-3.48;70.77;102097.37;1787099;80;21128;-60
2022/01/13 01:55:21;;;;;;;15.80;7.25;;;;;;;-3.50;70.54;102097.37;1787020;80;21199;-60
2022/01/13 01:57:52;;;;;;;14.95;7.15;;;;;;;-3.44;70.95;102106.16;1787195;80;21530;-60
2022/01/13 02:00:26;;;;;;;14.10;7.60;;;;;;;-3.53;71.20;102103.67;1787200;80;21078;-60
2022/01/13 02:02:55;;;;;;;13.78;7.12;;;;;;;-3.53;71.20;102103.67;1787325;80;21504;-60
2022/01/13 02:05:24;;;;;;;18.65;7.42;;;;;;;-3.47;71.33;102112.47;1787074;80;21085;-61
2022/01/13 02:07:53;;;;;;;13.62;6.28;;;;;;;-3.48;71.41;102106.87;1786985;80;21515;-60
2022/01/13 02:10:42;;;;;;;15.28;6.17;;;;;;;-3.51;71.59;102109.77;1787048;80;21159;-61
2022/01/13 02:13:13;;;;;;;15.83;7.62;;;;;;;-3.54;71.67;102103.22;1746695;82;21160;-60
2022/01/13 02:16:02;;;;;;;17.57;7.33;;;;;;;-3.55;71.77;102109.59;1746652;82;21153;-60
2022/01/13 02:18:33;;;;;;;14.75;6.17;;;;;;;-3.55;71.73;102107.88;1746565;82;21082;-60
2022/01/13 02:21:02;;;;;;;15.35;7.60;;;;;;;-3.51;71.71;102108.89;1746657;82;21172;-60
2022/01/13 02:23:39;;;;;;;13.25;6.10;;;;;;;-3.55;71.56;102113.03;1746577;82;21066;-60
2022/01/13 02:26:10;;;;;;;14.95;7.25;;;;;;;-3.57;71.55;102117.25;1746697;82;21083;-60
2022/01/13 02:28:39;;;;;;;14.68;7.33;;;;;;;-3.56;71.68;102113.88;1746682;82;21133;-61
2022/01/13 02:31:09;;;;;;;20.20;7.10;;;;;;;-3.54;71.59;102117.38;1746542;82;21211;-60
2022/01/13 02:33:38;;;;;;;16.97;7.15;;;;;;;-3.52;71.37;102124.76;1746576;82;21528;-59
2022/01/13 02:36:08;;;;;;;13.03;6.55;;;;;;;-3.52;71.42;102127.33;1746574;82;21090;-61
2022/01/13 02:38:37;;;;;;;15.93;6.65;;;;;;;-3.57;71.40;102130.12;1746681;82;21082;-61
2022/01/13 02:41:05;;;;;;;12.68;6.55;;;;;;;-3.57;71.48;102132.70;1746509;82;21098;-60
2022/01/13 02:43:35;;;;;;;18.02;8.05;;;;;;;-3.60;71.54;102131.27;1746638;82;21114;-61
2022/01/13 02:46:18;;;;;;;14.50;6.92;;;;;;;-3.63;71.58;102128.59;1746608;82;21579;-60
2022/01/13 02:48:38;;;;;;;16.57;7.60;;;;;;;-3.57;71.59;102142.13;1744174;82;21602;-61
2022/01/13 02:51:07;;;;;;;18.32;8.23;;;;;;;-3.56;71.61;102140.91;1746563;82;21054;-59
2022/01/13 02:53:36;;;;;;;14.05;6.55;;;;;;;-3.57;71.51;102133.11;1746587;82;21106;-62
2022/01/13 02:56:05;;;;;;;16.25;6.80;;;;;;;-3.57;71.51;102133.11;1746558;82;21094;-62
2022/01/13 02:58:37;;;;;;;16.85;7.95;;;;;;;-3.54;71.51;102147.38;1746683;82;21082;-62
2022/01/13 03:01:06;;;;;;;15.48;7.45;;;;;;;-3.57;71.48;102147.27;1746759;82;21083;-61
2022/01/13 03:03:36;;;;;;;18.52;7.47;;;;;;;-3.63;71.13;102145.33;1746515;82;21528;-62
2022/01/13 03:06:14;;;;;;;17.67;7.17;;;;;;;-3.61;71.42;102155.28;1746436;82;21165;-62
2022/01/13 03:08:48;;;;;;;13.00;7.40;;;;;;;-3.59;71.00;102157.92;1745885;82;21060;-60
2022/01/13 03:11:18;;;;;;;12.13;6.37;;;;;;;-3.59;71.00;102157.92;1745224;80;21089;-62
2022/01/13 03:13:47;;;;;;;16.77;7.35;;;;;;;-3.62;71.33;102167.66;1788640;80;21065;-62
2022/01/13 03:16:36;;;;;;;15.25;7.47;;;;;;;-3.67;71.58;102167.00;1788481;80;21106;-62
2022/01/13 03:19:05;;;;;;;15.95;7.30;;;;;;;-3.67;71.89;102170.86;1822926;79;21097;-60
2022/01/13 03:21:34;;;;;;;13.53;6.72;;;;;;;-3.67;71.89;102170.86;1850135;77;21049;-60
2022/01/13 03:24:07;;;;;;;16.17;7.70;;;;;;;-3.63;71.57;102166.31;1850157;77;21076;-60
2022/01/13 03:26:35;;;;;;;13.15;6.03;;;;;;;-3.59;71.40;102170.38;1850141;77;21526;-60
2022/01/13 03:29:15;;;;;;;11.57;6.15;;;;;;;-3.57;71.32;102178.17;1849977;77;21130;-61
2022/01/13 03:31:34;;;;;;;17.07;7.03;;;;;;;-3.60;71.25;102176.33;1848565;77;21024;-61
2022/01/13 03:34:03;;;;;;;11.83;6.03;;;;;;;-3.67;71.19;102182.06;1850144;77;21103;-60
2022/01/13 03:36:34;;;;;;;12.05;6.53;;;;;;;-3.64;71.24;102177.02;1850034;77;21553;-59
2022/01/13 03:39:05;;;;;;;15.63;6.12;;;;;;;-3.64;71.24;102177.02;1850081;77;21071;-59
2022/01/13 03:41:35;;;;;;;15.58;7.33;;;;;;;-3.61;71.13;102179.73;1849972;77;21141;-59
2022/01/13 03:44:07;;;;;;;13.95;5.70;;;;;;;-3.57;71.04;102175.18;1850083;77;21113;-59
2022/01/13 03:46:37;;;;;;;11.50;5.47;;;;;;;-3.55;70.93;102182.56;1850113;77;21052;-61
2022/01/13 03:49:10;;;;;;;12.80;4.87;;;;;;;-3.58;70.95;102187.98;1850070;77;21048;-60
2022/01/13 03:52:02;;;;;;;12.73;5.08;;;;;;;-3.61;70.97;102190.03;1850053;77;21115;-60
2022/01/13 03:54:39;;;;;;;10.00;4.87;;;;;;;-3.58;70.87;102196.61;1819262;77;21079;-62
2022/01/13 03:57:46;;;;;;;11.80;5.78;;;;;;;-3.60;70.67;102199.50;1850084;77;21135;-61
2022/01/13 04:00:51;;;;;;;13.90;6.00;;;;;;;-3.69;70.77;102222.28;1849952;77;21150;-62
2022/01/13 04:03:20;;;;;;;13.70;5.72;;;;;;;-3.80;70.57;102203.83;1850040;77;21072;-63
2022/01/13 04:06:03;;;;;;;15.28;6.03;;;;;;;-3.79;70.99;102208.56;1850050;77;21177;-62
2022/01/13 04:08:32;;;;;;;9.00;5.10;;;;;;;-3.79;70.99;102208.56;1860337;76;21594;-62
2022/01/13 04:11:07;;;;;;;11.85;5.78;;;;;;;-3.78;70.42;102221.50;1881468;76;21107;-62
2022/01/13 04:13:58;;;;;;;27.07;10.32;;;;;;;-3.88;70.31;102222.77;1881572;76;21116;-60
2022/01/13 04:16:28;;;;;;;23.65;8.95;;;;;;;-3.95;70.28;102218.16;1835607;78;21421;-60
2022/01/13 04:19:04;;;;;;;20.57;7.92;;;;;;;-3.98;70.22;102216.77;1881322;76;21521;-61
2022/01/13 04:21:30;;;;;;;13.83;6.47;;;;;;;-3.98;70.13;102215.89;1881442;76;21116;-60
2022/01/13 04:24:03;;;;;;;11.53;5.65;;;;;;;-4.01;70.12;102216.62;1881543;76;21606;-60
2022/01/13 04:26:34;;;;;;;17.90;6.83;;;;;;;-4.02;70.10;102225.16;1881840;76;21121;-60
2022/01/13 04:31:44;;;;;;;17.87;8.00;;;;;;;-4.13;70.10;102218.63;1881493;76;21159;-62
2022/01/13 04:34:14;;;;;;;20.23;6.90;;;;;;;-4.14;70.20;102220.33;1881582;76;21039;-61
2022/01/13 04:36:43;;;;;;;20.77;8.15;;;;;;;-4.14;70.18;102222.03;1881559;76;21559;-62
2022/01/13 04:39:14;;;;;;;21.45;9.13;;;;;;;-4.13;70.18;102223.78;1881783;76;21050;-63
2022/01/13 04:41:45;;;;;;;18.05;8.35;;;;;;;-4.10;70.17;102229.07;1881620;76;21105;-62
2022/01/13 04:44:20;;;;;;;23.50;8.30;;;;;;;-4.08;70.17;102233.87;1881520;76;21145;-60
2022/01/13 04:46:50;;;;;;;18.17;8.93;;;;;;;-4.07;70.08;102226.64;1881597;76;21086;-62
2022/01/13 04:49:19;;;;;;;17.23;7.37;;;;;;;-4.07;70.04;102233.95;1881596;76;21093;-62
2022/01/13 04:51:50;;;;;;;19.98;8.30;;;;;;;-4.05;70.03;102231.86;1881494;76;21111;-62
2022/01/13 04:54:19;;;;;;;17.90;8.13;;;;;;;-4.07;70.06;102236.52;1881543;76;21094;-62
2022/01/13 04:59:20;;;;;;;15.58;7.35;;;;;;;-4.09;70.08;102238.56;1881523;76;21027;-61
2022/01/13 05:01:49;;;;;;;19.75;8.88;;;;;;;-4.08;70.10;102246.36;1881551;76;21630;-62
2022/01/13 05:04:18;;;;;;;18.48;8.03;;;;;;;-4.08;70.10;102245.45;1881567;76;21050;-62
2022/01/13 05:06:51;;;;;;;15.38;8.10;;;;;;;-4.09;70.17;102249.73;1881367;76;21047;-62
2022/01/13 05:09:17;;;;;;;21.77;9.43;;;;;;;-4.05;70.08;102245.59;1873628;76;21064;-61
2022/01/13 05:11:45;;;;;;;18.17;8.25;;;;;;;-4.05;70.09;102255.89;1835535;78;21132;-61
2022/01/13 05:14:14;;;;;;;22.60;7.62;;;;;;;-4.04;70.03;102258.92;1870294;77;21028;-61
2022/01/13 05:16:59;;;;;;;19.65;8.15;;;;;;;-4.07;70.11;102261.38;1835531;78;21033;-61
2022/01/13 05:19:28;;;;;;;23.47;8.55;;;;;;;-4.05;70.12;102268.75;1867651;77;21512;-63
2022/01/13 05:24:30;;;;;;;19.17;8.38;;;;;;;-4.07;70.13;102275.53;1866867;77;21147;-63
2022/01/13 05:26:58;;;;;;;22.25;9.35;;;;;;;-4.10;70.13;102276.66;1866924;77;21334;-61
2022/01/13 05:29:30;;;;;;;22.22;9.00;;;;;;;-4.12;70.13;102279.58;1867027;77;21544;-61
2022/01/13 05:31:59;;;;;;;18.12;7.90;;;;;;;-4.14;70.11;102291.49;1866763;77;21097;-62
2022/01/13 05:34:28;;;;;;;18.82;8.48;;;;;;;-4.16;70.12;102286.69;1866896;77;21057;-61
2022/01/13 05:36:56;;;;;;;18.40;8.90;;;;;;;-4.13;69.92;102285.52;1867136;77;21058;-62
2022/01/13 05:39:25;;;;;;;16.87;7.83;;;;;;;-4.13;69.92;102285.52;1866914;77;21123;-62
2022/01/13 05:41:55;;;;;;;17.37;8.48;;;;;;;-4.12;70.10;102300.16;1866405;77;21500;-61
2022/01/13 05:44:36;;;;;;;20.95;8.20;;;;;;;-4.17;70.09;102303.82;1866827;77;21046;-63
2022/01/13 05:46:54;;;;;;;21.52;9.08;;;;;;;-4.26;69.94;102295.64;1866430;76;21089;-61
2022/01/13 05:49:25;;;;;;;18.98;7.65;;;;;;;-4.26;69.94;102295.64;1866385;77;21523;-61
2022/01/13 05:51:54;;;;;;;18.37;7.42;;;;;;;-4.20;70.16;102302.80;1866918;77;21050;-60
2022/01/13 05:54:22;;;;;;;13.30;6.95;;;;;;;-4.17;70.16;102304.20;1866891;77;21046;-61
2022/01/13 05:56:51;;;;;;;18.00;8.38;;;;;;;-4.19;70.11;102306.70;1867140;77;21022;-62
2022/01/13 05:59:21;;;;;;;18.40;7.87;;;;;;;-4.18;70.08;102307.60;1866849;77;21069;-60
2022/01/13 06:01:50;;;;;;;16.15;7.80;;;;;;;-4.13;70.03;102313.81;1866893;77;21096;-62
2022/01/13 06:04:18;;;;;;;17.82;7.12;;;;;;;-4.08;70.10;102322.25;1866927;77;21061;-60
2022/01/13 06:06:47;;;;;;;17.45;7.22;;;;;;;-4.01;70.03;102319.53;1866893;77;21097;-60
2022/01/13 06:09:16;;;;;;;13.45;6.40;;;;;;;-3.96;69.96;102325.78;1867021;77;21042;-60
2022/01/13 06:11:55;;;;;;;16.93;7.58;;;;;;;-3.94;69.90;102325.86;1866857;77;21050;-59
2022/01/13 06:14:15;;;;;;;17.02;7.37;;;;;;;-3.93;69.85;102328.89;1867291;76;21116;-59
2022/01/13 06:16:44;;;;;;;16.27;7.42;;;;;;;-3.93;69.84;102323.36;1866925;77;21050;-59
2022/01/13 06:19:12;;;;;;;14.70;5.37;;;;;;;-3.93;69.80;102333.66;1866836;77;21066;-63
2022/01/13 06:21:41;;;;;;;8.65;4.95;;;;;;;-3.99;69.86;102333.35;1866911;77;21128;-60
2022/01/13 06:24:10;;;;;;;15.32;5.95;;;;;;;-4.01;69.85;102336.67;1866886;77;21929;-60
2022/01/13 06:26:39;;;;;;;17.80;6.80;;;;;;;-4.02;69.81;102340.95;1866948;76;21136;-59
2022/01/13 06:29:07;;;;;;;16.10;6.50;;;;;;;-3.95;69.87;102344.25;1866903;77;21038;-61
2022/01/13 06:31:36;;;;;;;17.55;7.58;;;;;;;-3.91;69.82;102350.42;1866904;77;21132;-61
2022/01/13 06:34:05;;;;;;;16.02;7.20;;;;;;;-3.89;69.82;102353.98;1867078;77;21554;-61
2022/01/13 06:36:34;;;;;;;15.93;7.33;;;;;;;-3.88;69.74;102352.73;1866897;77;21137;-62
2022/01/13 06:39:03;;;;;;;17.92;6.10;;;;;;;-3.83;69.86;102354.66;1867007;75;21101;-62
2022/01/13 06:41:33;;;;;;;20.43;6.45;;;;;;;-3.82;69.69;102357.28;1866922;76;21058;-61
2022/01/13 06:44:07;;;;;;;15.32;7.05;;;;;;;-3.75;69.75;102353.31;1866836;76;21529;-62
2022/01/13 06:46:33;;;;;;;11.45;6.12;;;;;;;-3.74;69.75;102357.66;1857761;77;21142;-60
2022/01/13 06:49:02;;;;;;;15.93;7.10;;;;;;;-3.77;69.97;102361.37;1842457;78;21148;-62
2022/01/13 06:51:34;;;;;;;17.82;6.70;;;;;;;-3.66;69.88;102361.45;1842443;78;21071;-61
2022/01/13 06:54:02;;;;;;;14.83;7.03;;;;;;;-3.51;69.58;102375.00;1875435;76;21051;-62
2022/01/13 06:56:31;;;;;;;26.87;9.38;;;;;;;-3.43;69.36;102368.93;1875365;76;21109;-61
2022/01/13 06:59:05;;;;;;;7.83;3.92;;;;;;;-3.54;69.11;102367.16;1875563;76;21163;-60
2022/01/13 07:01:30;;;;;;;15.18;6.08;;;;;;;-3.56;69.17;102372.66;1869552;76;21100;-60
2022/01/13 07:03:59;;;;;;;14.33;6.97;;;;;;;-3.60;69.23;102373.30;1850195;77;21136;-61
2022/01/13 07:06:28;;;;;;;12.43;6.20;;;;;;;-3.61;69.28;102375.42;1829567;78;21050;-58
2022/01/13 07:08:56;;;;;;;13.72;6.90;;;;;;;-3.56;69.22;102371.74;1852821;76;21109;-56
2022/01/13 07:11:25;;;;;;;17.80;7.72;;;;;;;-3.54;69.19;102372.31;1875327;76;21086;-56
2022/01/13 07:13:53;;;;;;;13.65;6.30;;;;;;;-3.41;69.13;102375.41;1874982;76;21138;-56
2022/01/13 07:16:23;;;;;;;12.00;6.12;;;;;;;-3.18;68.85;102378.59;1844567;76;21196;-56
2022/01/13 07:18:51;;;;;;;19.45;7.35;;;;;;;-2.98;68.78;102377.30;1858412;77;21506;-57
2022/01/13 07:21:22;;;;;;;19.20;6.37;;;;;;;-2.73;68.57;102375.33;1839707;77;21142;-57
2022/01/13 07:23:50;;;;;;;13.53;6.33;;;;;;;-2.49;68.41;102374.20;1829006;78;21087;-56
2022/01/13 07:26:19;;;;;;;14.65;7.37;;;;;;;-2.28;68.24;102381.04;1830730;77;21488;-57
2022/01/13 07:28:48;;;;;;;14.70;5.95;;;;;;;-2.06;67.99;102382.35;1830615;78;21143;-57
2022/01/13 07:31:17;;;;;;;14.28;6.60;;;;;;;-1.90;67.60;102373.52;1832924;77;21118;-57
2022/01/13 07:33:47;;;;;;;12.20;5.00;;;;;;;-1.70;67.46;102389.73;1850092;77;21502;-61
2022/01/13 07:36:15;;;;;;;16.25;6.53;;;;;;;-1.41;67.17;102380.48;1843691;77;21434;-56
2022/01/13 07:38:44;;;;;;;13.93;6.92;;;;;;;-1.18;66.56;102376.16;1837417;78;21067;-57
2022/01/13 07:41:13;;;;;;;13.65;5.95;;;;;;;-1.18;66.56;102376.16;1837289;78;21070;-56
2022/01/13 07:43:49;;;;;;;12.63;5.60;;;;;;;-1.09;67.08;102383.77;1837478;78;21149;-56
2022/01/13 07:46:11;;;;;;;9.58;6.10;;;;;;;-1.00;67.31;102386.67;1836271;78;21067;-59
2022/01/13 07:48:40;;;;;;;16.05;6.12;;;;;;;-1.02;67.29;102381.44;1837520;78;21141;-58
2022/01/13 07:51:09;;;;;;;15.30;6.30;;;;;;;-1.01;67.10;102384.92;1837430;78;21145;-54
2022/01/13 07:53:38;;;;;;;11.63;6.22;;;;;;;-1.01;66.87;102382.34;1837310;78;21070;-56
2022/01/13 07:56:07;;;;;;;12.20;6.28;;;;;;;-1.10;66.69;102387.19;1837412;78;21059;-55
2022/01/13 07:58:37;;;;;;;18.87;7.47;;;;;;;-1.19;66.73;102379.55;1837488;78;21078;-55
2022/01/13 08:01:06;;;;;;;21.05;8.73;;;;;;;-1.23;66.90;102388.03;1837492;78;21051;-55
2022/01/13 08:03:34;;;;;;;19.73;8.73;;;;;;;-1.26;66.65;102391.80;1837552;78;21039;-55
2022/01/13 08:06:04;;;;;;;20.50;7.65;;;;;;;-1.52;66.37;102386.97;1837438;78;21149;-58
2022/01/13 08:08:35;;;;;;;19.05;7.53;;;;;;;-1.68;66.67;102389.37;1837497;78;21142;-56
2022/01/13 08:11:05;;;;;;;17.27;7.05;;;;;;;-1.67;66.84;102392.45;1837554;78;21059;-55
2022/01/13 08:13:35;;;;;;;15.18;6.28;;;;;;;-1.65;66.94;102376.59;1837447;78;21122;-55
2022/01/13 08:16:08;;;;;;;10.65;6.37;;;;;;;-1.65;66.94;102376.59;1837529;78;21079;-55
2022/01/13 08:21:23;;;;;;;13.75;5.25;;;;;;;-1.66;66.77;102386.47;1837451;78;21177;-55
2022/01/13 08:23:52;;;;;;;6.95;3.98;;;;;;;-1.84;67.12;102385.77;1837509;78;21505;-55
2022/01/13 08:26:21;;;;;;;11.65;6.05;;;;;;;-1.81;67.58;102390.65;1837504;78;21204;-57
2022/01/13 08:28:51;;;;;;;8.58;5.40;;;;;;;-1.71;67.40;102394.45;1837578;78;21075;-57
2022/01/13 08:31:19;;;;;;;10.35;4.65;;;;;;;-1.82;67.49;102381.12;1837512;78;21067;-58
2022/01/13 08:33:48;;;;;;;9.43;4.45;;;;;;;-1.82;67.49;102381.12;1837428;78;21039;-57
2022/01/13 08:36:17;;;;;;;7.20;4.30;;;;;;;-1.87;67.21;102375.31;1837630;78;21497;-57
2022/01/13 08:38:48;;;;;;;11.57;4.42;;;;;;;-1.97;67.49;102376.25;1837607;78;21442;-57
2022/01/13 08:41:17;;;;;;;9.30;4.50;;;;;;;-1.86;67.73;102375.77;1837518;78;21055;-57
2022/01/13 08:43:45;;;;;;;7.35;3.90;;;;;;;-1.86;67.73;102375.77;1837409;78;21063;-57
2022/01/13 08:46:14;;;;;;;12.03;4.67;;;;;;;-1.67;67.72;102373.49;1837485;78;21075;-56
2022/01/13 08:48:43;;;;;;;21.48;4.83;;;;;;;-0.97;67.06;102370.84;1837465;78;21575;-57
2022/01/13 08:51:11;;;;;;;7.97;3.37;;;;;;;-0.39;66.10;102373.61;1837585;78;21122;-57
2022/01/13 08:53:40;;;;;;;6.08;3.22;;;;;;;-0.21;65.54;102362.98;1837448;78;21169;-57
2022/01/13 08:56:09;;;;;;;5.12;3.20;;;;;;;-0.23;65.09;102363.34;1837425;78;21087;-57
2022/01/13 08:58:37;;;;;;;6.78;3.50;;;;;;;-0.20;64.92;102359.14;1837467;78;21078;-57
2022/01/13 09:01:07;;;;;;;5.90;2.83;;;;;;;-0.32;64.86;102358.14;1837597;78;21062;-57
2022/01/13 09:03:38;;;;;;;8.05;3.45;;;;;;;-0.37;64.69;102330.97;1837656;78;21059;-57
2022/01/13 09:06:07;;;;;;;7.85;2.60;;;;;;;-0.31;65.13;102341.53;1836944;78;21502;-57
2022/01/13 09:08:35;;;;;;;13.38;3.83;;;;;;;0.18;63.90;102346.89;1837410;78;21035;-57
2022/01/13 09:11:04;;;;;;;6.72;3.45;;;;;;;1.71;60.88;102341.39;1837510;78;21580;-57
2022/01/13 09:13:36;;;;;;;5.33;2.65;;;;;;;2.69;58.96;102344.80;1837507;78;21059;-57
2022/01/13 09:16:13;;;;;;;9.00;3.67;;;;;;;3.64;57.50;102344.67;1837198;78;21142;-57
2022/01/13 09:18:58;;;;;;;11.70;3.55;;;;;;;3.51;57.10;102347.95;1835986;78;21071;-57
2022/01/13 09:21:05;;;;;;;8.98;4.25;;;;;;;3.81;56.65;102337.97;1833036;78;21631;-57
2022/01/13 09:23:36;;;;;;;6.85;3.80;;;;;;;5.14;54.29;102335.19;1837392;78;21237;-57
2022/01/13 09:26:05;;;;;;;7.62;3.95;;;;;;;6.52;51.83;102323.88;1837459;78;21083;-57
2022/01/13 09:28:35;;;;;;;8.35;4.10;;;;;;;7.55;50.20;102326.59;1837470;78;21035;-57
2022/01/13 09:31:05;;;;;;;6.33;3.47;;;;;;;8.12;48.84;102321.23;1837585;78;21051;-57
2022/01/13 09:33:35;;;;;;;5.62;2.65;;;;;;;8.72;47.95;102316.16;1837448;78;21137;-57
2022/01/13 09:36:07;;;;;;;6.30;3.87;;;;;;;8.16;48.31;102315.53;1837527;78;21166;-57
2022/01/13 09:38:36;;;;;;;6.15;3.08;;;;;;;7.46;49.26;102309.58;1837454;78;21095;-57
2022/01/13 09:41:05;;;;;;;5.58;1.75;;;;;;;8.31;47.29;102301.02;1837496;78;21458;-57
2022/01/13 09:43:36;;;;;;;9.80;4.50;;;;;;;9.09;46.42;102304.94;1837482;78;21559;-57
2022/01/13 09:46:04;;;;;;;6.85;3.87;;;;;;;9.12;45.86;102303.62;1836284;78;21043;-57
2022/01/13 09:48:33;;;;;;;10.13;4.80;;;;;;;7.63;47.96;102298.61;1837580;78;21138;-57
2022/01/13 09:51:02;;;;;;;8.75;4.05;;;;;;;6.51;49.26;102300.77;1837518;78;21063;-57
2022/01/13 09:53:31;;;;;;;5.65;3.12;;;;;;;5.09;50.80;102311.20;1837683;78;21153;-57
2022/01/13 09:56:00;;;;;;;8.83;3.92;;;;;;;3.69;52.29;102313.06;1837431;78;21079;-57
2022/01/13 09:58:30;;;;;;;5.85;3.05;;;;;;;2.66;53.90;102321.31;1837200;78;21648;-57
2022/01/13 10:00:59;;;;;;;6.67;3.65;;;;;;;1.83;55.19;102317.01;1837311;78;21153;-57
2022/01/13 10:03:29;;;;;;;9.10;3.80;;;;;;;1.23;56.62;102323.80;1837495;78;21490;-57
2022/01/13 10:06:00;;;;;;;8.55;4.12;;;;;;;0.80;57.67;102316.23;1837593;78;21039;-57
2022/01/13 10:08:44;;;;;;;6.42;3.37;;;;;;;0.55;58.15;102316.84;1837582;78;21035;-57
2022/01/13 10:11:35;;;;;;;6.20;3.30;;;;;;;0.99;57.92;102317.15;1837545;78;21110;-57
2022/01/13 10:17:00;;;;;;;6.83;3.60;;;;;;;3.17;53.46;102294.00;1837480;78;21082;-57
2022/01/13 10:19:35;;;;;;;7.33;3.33;;;;;;;2.47;54.44;102297.99;1837440;78;21039;-58
2022/01/13 10:22:12;;;;;;;5.85;2.47;;;;;;;1.84;54.69;102301.86;1837375;78;21248;-56
2022/01/13 10:24:43;;;;;;;6.00;3.02;;;;;;;1.40;55.89;102308.20;1837456;78;21149;-55
2022/01/13 10:27:15;;;;;;;8.43;3.40;;;;;;;0.93;56.97;102297.55;1837503;78;21090;-57
2022/01/13 10:29:52;;;;;;;7.87;4.08;;;;;;;0.66;57.28;102301.58;1837500;78;21078;-57
2022/01/13 10:32:23;;;;;;;6.92;3.62;;;;;;;0.33;57.88;102296.83;1837531;78;21212;-56
2022/01/13 10:34:58;;;;;;;8.18;3.75;;;;;;;0.77;57.65;102293.66;1837647;78;21110;-56
2022/01/13 10:37:35;;;;;;;10.08;4.55;;;;;;;3.15;53.57;102286.60;1837550;78;21071;-56
2022/01/13 10:40:24;;;;;;;9.58;4.30;;;;;;;4.56;50.97;102283.30;1835034;78;21083;-57
2022/01/13 10:45:43;;;;;;;9.48;4.28;;;;;;;5.12;50.13;102281.21;1837488;78;21099;-56
2022/01/13 10:48:17;;;;;;;7.10;3.72;;;;;;;3.65;52.31;102289.10;1837568;78;21490;-57
2022/01/13 10:50:58;;;;;;;5.00;2.20;;;;;;;2.66;53.94;102283.60;1837438;78;21482;-57
2022/01/13 10:53:36;;;;;;;6.42;3.98;;;;;;;1.93;54.99;102284.31;1837535;78;21059;-56
2022/01/13 10:56:07;;;;;;;7.22;3.05;;;;;;;1.06;55.79;102285.34;1837432;78;21204;-57
2022/01/13 10:58:39;;;;;;;9.18;4.40;;;;;;;0.50;56.60;102275.66;1837276;78;21047;-56
2022/01/13 11:01:09;;;;;;;6.85;3.35;;;;;;;0.46;57.24;102266.95;1837405;78;21145;-57
2022/01/13 11:03:41;;;;;;;8.78;4.75;;;;;;;1.17;56.77;102271.77;1837409;78;21146;-56
2022/01/13 11:06:12;;;;;;;7.42;3.85;;;;;;;2.36;53.43;102258.31;1837450;78;21074;-56
2022/01/13 11:08:44;;;;;;;6.55;3.10;;;;;;;3.56;51.19;102257.72;1837512;78;21470;-56
2022/01/13 11:11:26;;;;;;;7.53;4.20;;;;;;;4.61;50.06;102259.45;1837532;78;21039;-56
2022/01/13 11:14:07;;;;;;;8.20;4.00;;;;;;;4.74;49.99;102268.68;1837328;78;21076;-57
2022/01/13 11:16:30;;;;;;;6.55;2.67;;;;;;;4.05;51.45;102274.02;1836444;78;21071;-56
2022/01/13 11:18:59;;;;;;;7.75;3.83;;;;;;;3.34;52.44;102276.95;1837423;78;21556;-56
2022/01/13 11:21:28;;;;;;;6.05;3.15;;;;;;;2.47;53.18;102286.29;1837458;78;21505;-56
2022/01/13 11:24:00;;;;;;;9.08;3.40;;;;;;;1.74;54.03;102285.64;1837332;78;21087;-57
2022/01/13 11:26:29;;;;;;;5.17;2.75;;;;;;;1.15;54.92;102292.48;1837320;78;21129;-56
2022/01/13 11:29:04;;;;;;;8.90;4.47;;;;;;;1.04;55.14;102285.72;1837412;78;21569;-57
2022/01/13 11:31:33;;;;;;;4.62;2.25;;;;;;;2.78;52.05;102283.38;1837382;78;21126;-57
2022/01/13 11:34:02;;;;;;;4.78;2.40;;;;;;;4.38;48.97;102271.36;1837533;78;21489;-56
2022/01/13 11:36:32;;;;;;;13.50;4.17;;;;;;;5.12;47.36;102272.94;1837458;78;21145;-56
2022/01/13 11:39:06;;;;;;;6.40;3.47;;;;;;;5.28;46.40;102267.41;1837271;78;21074;-56
2022/01/13 11:41:34;;;;;;;7.95;4.03;;;;;;;4.47;47.89;102275.38;1837555;78;21058;-56
2022/01/13 11:44:21;;;;;;;9.75;4.45;;;;;;;3.53;50.07;102278.53;1837504;78;21180;-56
2022/01/13 11:46:50;;;;;;;10.75;5.15;;;;;;;2.68;51.86;102275.40;1837415;78;21070;-57
2022/01/13 11:49:36;;;;;;;7.12;3.10;;;;;;;1.93;53.22;102294.70;1837340;78;21035;-57
2022/01/13 11:52:02;;;;;;;9.75;3.75;;;;;;;1.32;54.62;102291.16;1834157;78;21063;-56
2022/01/13 11:54:35;;;;;;;6.55;3.22;;;;;;;0.71;55.18;102299.57;1837219;78;21082;-55
2022/01/13 11:57:18;;;;;;;10.98;3.98;;;;;;;0.09;56.30;102292.22;1837474;78;21161;-56
2022/01/13 11:59:59;;;;;;;9.98;4.10;;;;;;;0.11;56.52;102306.09;1837446;78;21537;-56
2022/01/13 12:02:31;;;;;;;9.48;4.25;;;;;;;0.25;56.62;102302.19;1837399;78;21147;-56